Tampico, Illinois
Current Conditions -  °F | °C
As of 4:15 AM on Sunday 25 Jan 2015 (Local Time) from KSQI Reporting Station
Broken Clouds Broken Clouds  
Wind Chill: 24°   Ceiling: 12000
Heat Index: 34°   Visibility: 7mi
Dew Point: 30°   Wind: 15mph
Humidity: 87%   Direction: 80°E
Pressure: 29.63"   Gusts: NA
Location:  41.63°N, 89.79°W
Report Text: KSQI 251015Z AUTO 08013KT 7SM BKN120 01/M01 A2963 RMK AO1
Loading
Personal Weather Stations






























Interactive Weather Map New forecast layout! Learn more

10-Day Weather Forecast

Advertisements
Track Severe Weather on mobile